Time;durP1;ratioP1;P1;durP2;ratioP2;P2;SDS_P1;SDS_P2;PMS_P1;PMS_P2;Temp;Humidity;BMP_temperature;BMP_pressure;BME280_temperature;BME280_humidity;BME280_pressure;Samples;Min_cycle;Max_cycle;Signal;HPM_P1;HPM_P2
2021/05/10 00:01:08;;;;;;;0.47;0.30;;;;;;;;;;5013679;28;20609;-75
2021/05/10 00:03:34;;;;;;;0.10;0.10;;;;;;;;;;5013656;28;20054;-76
2021/05/10 00:05:59;;;;;;;0.40;0.25;;;;;;;;;;5013626;28;20064;-75
2021/05/10 00:08:27;;;;;;;0.20;0.20;;;;;;;;;;5012956;28;20026;-75
2021/05/10 00:10:52;;;;;;;0.20;0.20;;;;;;;;;;5013703;28;20025;-75
2021/05/10 00:13:19;;;;;;;0.20;0.20;;;;;;;;;;5009076;28;20026;-76
2021/05/10 00:15:45;;;;;;;0.20;0.20;;;;;;;;;;4993711;28;20018;-76
2021/05/10 00:18:10;;;;;;;0.20;0.15;;;;;;;;;;4995599;28;20154;-76
2021/05/10 00:20:39;;;;;;;0.20;0.20;;;;;;;;;;5017203;28;20459;-76
2021/05/10 00:23:04;;;;;;;0.20;0.20;;;;;;;;;;5017035;28;20032;-76
2021/05/10 00:25:30;;;;;;;0.20;0.20;;;;;;;;;;5017531;28;20026;-75
2021/05/10 00:27:55;;;;;;;0.20;0.20;;;;;;;;;;5017746;28;20035;-75
2021/05/10 00:30:23;;;;;;;0.43;0.30;;;;;;;;;;5017625;28;20097;-77
2021/05/10 00:32:49;;;;;;;0.43;0.20;;;;;;;;;;5017235;28;20022;-76
2021/05/10 00:35:17;;;;;;;0.30;0.30;;;;;;;;;;5016521;28;20041;-76
2021/05/10 00:37:42;;;;;;;0.20;0.20;;;;;;;;;;5015902;28;20129;-75
2021/05/10 00:40:09;;;;;;;0.17;0.17;;;;;;;;;;5015510;28;20062;-75
2021/05/10 00:42:34;;;;;;;1.17;0.50;;;;;;;;;;5016424;28;20049;-74
2021/05/10 00:45:02;;;;;;;0.40;0.40;;;;;;;;;;5016990;28;20050;-74
2021/05/10 00:47:27;;;;;;;0.77;0.50;;;;;;;;;;5016741;28;20029;-76
2021/05/10 00:49:52;;;;;;;1.08;0.50;;;;;;;;;;5016401;28;20034;-76
2021/05/10 00:52:18;;;;;;;0.22;0.22;;;;;;;;;;5016375;28;20075;-75
2021/05/10 00:54:43;;;;;;;0.47;0.20;;;;;;;;;;5015610;28;20085;-76
2021/05/10 00:57:08;;;;;;;0.20;0.20;;;;;;;;;;5016760;28;20358;-76
2021/05/10 00:59:34;;;;;;;0.38;0.30;;;;;;;;;;5015266;28;20045;-77
2021/05/10 01:02:01;;;;;;;0.73;0.35;;;;;;;;;;5011773;28;20121;-76
2021/05/10 01:04:26;;;;;;;0.22;0.22;;;;;;;;;;5016527;28;20494;-75
2021/05/10 01:06:52;;;;;;;0.30;0.20;;;;;;;;;;5010741;28;20050;-75
2021/05/10 01:09:17;;;;;;;0.30;0.30;;;;;;;;;;5016441;28;20374;-75
2021/05/10 01:11:44;;;;;;;0.15;0.15;;;;;;;;;;5016799;28;20441;-75
2021/05/10 01:14:09;;;;;;;0.20;0.20;;;;;;;;;;5016849;28;20028;-74
2021/05/10 01:16:35;;;;;;;0.30;0.20;;;;;;;;;;5016238;28;20021;-74
2021/05/10 01:19:00;;;;;;;0.40;0.20;;;;;;;;;;5015227;28;20281;-74
2021/05/10 01:21:28;;;;;;;0.17;0.17;;;;;;;;;;5016436;28;20117;-74
2021/05/10 01:23:53;;;;;;;2.08;0.10;;;;;;;;;;5014801;28;20018;-75
2021/05/10 01:26:18;;;;;;;0.20;0.20;;;;;;;;;;5000270;28;20033;-75
2021/05/10 01:28:43;;;;;;;0.10;0.10;;;;;;;;;;4996339;28;20054;-76
2021/05/10 01:31:09;;;;;;;0.40;0.20;;;;;;;;;;4995511;28;20041;-76
2021/05/10 01:33:35;;;;;;;0.10;0.10;;;;;;;;;;4997028;28;20019;-76
2021/05/10 01:36:00;;;;;;;0.30;0.20;;;;;;;;;;4996561;28;20025;-76
2021/05/10 01:38:33;;;;;;;0.25;0.22;;;;;;;;;;4995584;28;20149;-75
2021/05/10 01:41:23;;;;;;;0.22;0.17;;;;;;;;;;5007110;28;20083;-75
2021/05/10 01:43:51;;;;;;;0.20;0.20;;;;;;;;;;5001176;28;20022;-75
2021/05/10 01:46:16;;;;;;;0.20;0.20;;;;;;;;;;4996523;28;20426;-75
2021/05/10 01:48:41;;;;;;;0.15;0.15;;;;;;;;;;4996433;28;20061;-75
2021/05/10 01:51:06;;;;;;;0.47;0.30;;;;;;;;;;5006591;28;20032;-75
2021/05/10 01:53:32;;;;;;;0.20;0.20;;;;;;;;;;5015768;28;20347;-76
2021/05/10 01:55:58;;;;;;;0.30;0.30;;;;;;;;;;5013921;28;20042;-75
2021/05/10 01:58:25;;;;;;;0.20;0.20;;;;;;;;;;5005925;28;20112;-76
2021/05/10 02:00:50;;;;;;;0.10;0.10;;;;;;;;;;5015378;28;20026;-76
2021/05/10 02:03:20;;;;;;;0.20;0.20;;;;;;;;;;5015485;28;20156;-75
2021/05/10 02:05:51;;;;;;;0.20;0.20;;;;;;;;;;5015929;28;20032;-76
2021/05/10 02:08:20;;;;;;;0.20;0.20;;;;;;;;;;5014748;28;20026;-76
2021/05/10 02:10:46;;;;;;;0.10;0.10;;;;;;;;;;5015778;28;20045;-75
2021/05/10 02:13:18;;;;;;;0.10;0.10;;;;;;;;;;5014777;28;20026;-75
2021/05/10 02:15:43;;;;;;;0.20;0.20;;;;;;;;;;5015627;28;20020;-75
2021/05/10 02:18:12;;;;;;;0.10;0.10;;;;;;;;;;5015115;28;20033;-75
2021/05/10 02:20:38;;;;;;;0.40;0.20;;;;;;;;;;5013240;28;20021;-75
2021/05/10 02:23:08;;;;;;;0.55;0.20;;;;;;;;;;5015455;28;20358;-75
2021/05/10 02:25:34;;;;;;;0.20;0.20;;;;;;;;;;5014465;28;20072;-75
2021/05/10 02:28:00;;;;;;;0.20;0.10;;;;;;;;;;5001351;28;20022;-75
2021/05/10 02:30:25;;;;;;;0.10;0.10;;;;;;;;;;5009105;28;20036;-75
2021/05/10 02:32:51;;;;;;;0.65;0.20;;;;;;;;;;5014713;28;20018;-75
2021/05/10 02:35:17;;;;;;;0.65;0.38;;;;;;;;;;5013570;28;20033;-74
2021/05/10 02:37:43;;;;;;;0.60;0.30;;;;;;;;;;5014670;28;20038;-75
2021/05/10 02:40:13;;;;;;;0.30;0.30;;;;;;;;;;5013793;28;20083;-75
2021/05/10 02:42:41;;;;;;;0.30;0.30;;;;;;;;;;5014244;28;20439;-76
2021/05/10 02:45:07;;;;;;;0.47;0.47;;;;;;;;;;5014902;28;20029;-74
2021/05/10 02:47:32;;;;;;;0.30;0.30;;;;;;;;;;5014385;28;20030;-74
2021/05/10 02:49:58;;;;;;;0.35;0.35;;;;;;;;;;5014865;28;20094;-75
2021/05/10 02:52:23;;;;;;;0.20;0.20;;;;;;;;;;5014944;28;20041;-75
2021/05/10 02:54:49;;;;;;;0.40;0.30;;;;;;;;;;5015044;28;20049;-75
2021/05/10 02:57:19;;;;;;;0.20;0.20;;;;;;;;;;5013442;28;20295;-76
2021/05/10 02:59:45;;;;;;;0.17;0.17;;;;;;;;;;5014405;28;20371;-76
2021/05/10 03:02:10;;;;;;;0.20;0.20;;;;;;;;;;5013864;28;20029;-76
2021/05/10 03:04:35;;;;;;;0.20;0.20;;;;;;;;;;5013346;28;20018;-76
2021/05/10 03:07:02;;;;;;;0.30;0.30;;;;;;;;;;5013864;28;20030;-76
2021/05/10 03:09:28;;;;;;;0.55;0.20;;;;;;;;;;5012304;28;20276;-76
2021/05/10 03:11:56;;;;;;;0.50;0.20;;;;;;;;;;5014490;28;20460;-76
2021/05/10 03:14:21;;;;;;;0.45;0.20;;;;;;;;;;5011232;28;20409;-77
2021/05/10 03:16:47;;;;;;;0.20;0.20;;;;;;;;;;5014025;28;20088;-76
2021/05/10 03:19:12;;;;;;;0.20;0.20;;;;;;;;;;5014269;28;20021;-76
2021/05/10 03:21:37;;;;;;;0.20;0.20;;;;;;;;;;5013301;28;20277;-75
2021/05/10 03:24:03;;;;;;;0.10;0.10;;;;;;;;;;5014370;28;20753;-75
2021/05/10 03:26:29;;;;;;;0.10;0.10;;;;;;;;;;5014150;28;20328;-75
2021/05/10 03:28:54;;;;;;;0.20;0.20;;;;;;;;;;4996448;28;20029;-75
2021/05/10 03:31:19;;;;;;;0.13;0.13;;;;;;;;;;5013794;28;20030;-75
2021/05/10 03:33:46;;;;;;;0.20;0.20;;;;;;;;;;5014237;28;20253;-76
2021/05/10 03:36:12;;;;;;;0.65;0.35;;;;;;;;;;5013497;28;20265;-77
2021/05/10 03:38:37;;;;;;;0.20;0.20;;;;;;;;;;5013928;28;20042;-76
2021/05/10 03:41:02;;;;;;;0.57;0.20;;;;;;;;;;5013374;28;20033;-76
2021/05/10 03:43:27;;;;;;;0.20;0.20;;;;;;;;;;5013224;28;20598;-77
2021/05/10 03:45:53;;;;;;;0.10;0.10;;;;;;;;;;5013892;28;20657;-75
2021/05/10 03:48:18;;;;;;;0.10;0.10;;;;;;;;;;5012459;28;20281;-75
2021/05/10 03:50:43;;;;;;;0.20;0.20;;;;;;;;;;5013745;28;20261;-74
2021/05/10 03:53:08;;;;;;;0.33;0.30;;;;;;;;;;5012290;28;20268;-76
2021/05/10 03:55:33;;;;;;;0.60;0.30;;;;;;;;;;5003017;28;20279;-75
2021/05/10 03:57:59;;;;;;;0.30;0.30;;;;;;;;;;5002135;28;20554;-76
2021/05/10 04:00:24;;;;;;;0.63;0.50;;;;;;;;;;4992962;28;20014;-78
2021/05/10 04:02:49;;;;;;;0.70;0.40;;;;;;;;;;4993976;28;20254;-76
2021/05/10 04:08:14;;;;;;;0.40;0.40;;;;;;;;;;5013722;28;20037;-74
2021/05/10 04:15:48;;;;;;;0.63;0.50;;;;;;;;;;5013316;28;20028;-74
2021/05/10 04:18:13;;;;;;;0.50;0.45;;;;;;;;;;5013471;28;20026;-75
2021/05/10 04:20:39;;;;;;;0.68;0.47;;;;;;;;;;5012783;28;20061;-77
2021/05/10 04:23:04;;;;;;;0.40;0.40;;;;;;;;;;5012668;28;20157;-74
2021/05/10 04:25:32;;;;;;;0.90;0.70;;;;;;;;;;5012846;28;20120;-77
2021/05/10 04:27:57;;;;;;;1.25;0.57;;;;;;;;;;5013046;28;20021;-77
2021/05/10 04:30:23;;;;;;;0.75;0.65;;;;;;;;;;5012845;28;20026;-77
2021/05/10 04:32:50;;;;;;;0.93;0.60;;;;;;;;;;5013550;28;20018;-78
2021/05/10 04:35:15;;;;;;;0.77;0.70;;;;;;;;;;5013583;28;20092;-75
2021/05/10 04:37:41;;;;;;;1.58;0.50;;;;;;;;;;5013316;28;20117;-75
2021/05/10 04:40:09;;;;;;;0.70;0.50;;;;;;;;;;5012361;28;20025;-75
2021/05/10 04:42:36;;;;;;;0.95;0.57;;;;;;;;;;5013323;28;20040;-76
2021/05/10 04:45:02;;;;;;;0.63;0.57;;;;;;;;;;5013338;28;20365;-75
2021/05/10 04:47:36;;;;;;;0.70;0.65;;;;;;;;;;5013003;28;20101;-75
2021/05/10 04:50:02;;;;;;;1.02;0.65;;;;;;;;;;5012513;28;20104;-76
2021/05/10 04:52:27;;;;;;;0.95;0.60;;;;;;;;;;5012996;28;20018;-74
2021/05/10 04:54:53;;;;;;;1.13;0.70;;;;;;;;;;5012309;28;20087;-73
2021/05/10 04:57:18;;;;;;;0.60;0.60;;;;;;;;;;5012366;28;20026;-75
2021/05/10 04:59:43;;;;;;;0.60;0.50;;;;;;;;;;5013343;28;20026;-76
2021/05/10 05:02:08;;;;;;;0.60;0.50;;;;;;;;;;5012679;28;20076;-75
2021/05/10 05:04:34;;;;;;;0.40;0.40;;;;;;;;;;5013957;28;20482;-76
2021/05/10 05:06:59;;;;;;;0.40;0.40;;;;;;;;;;5014197;28;20264;-75
2021/05/10 05:09:26;;;;;;;0.40;0.30;;;;;;;;;;5012505;28;20281;-76
2021/05/10 05:11:52;;;;;;;0.93;0.50;;;;;;;;;;5016653;28;20263;-77
2021/05/10 05:14:17;;;;;;;0.43;0.43;;;;;;;;;;5014688;28;20116;-77
2021/05/10 05:16:42;;;;;;;0.30;0.30;;;;;;;;;;5016761;28;20249;-78
2021/05/10 05:19:07;;;;;;;0.38;0.30;;;;;;;;;;5014976;28;20372;-77
2021/05/10 05:21:34;;;;;;;1.75;0.40;;;;;;;;;;5015647;28;20025;-75
2021/05/10 05:23:59;;;;;;;0.30;0.30;;;;;;;;;;5016574;28;20582;-75
2021/05/10 05:26:24;;;;;;;0.20;0.20;;;;;;;;;;5014353;28;20041;-75
2021/05/10 05:28:50;;;;;;;0.95;0.35;;;;;;;;;;5020044;28;20295;-74
2021/05/10 05:31:17;;;;;;;0.38;0.30;;;;;;;;;;5016515;28;20030;-74
2021/05/10 05:33:42;;;;;;;0.40;0.32;;;;;;;;;;5016625;28;20014;-75
2021/05/10 05:36:09;;;;;;;0.67;0.30;;;;;;;;;;5011044;28;20025;-75
2021/05/10 05:38:36;;;;;;;0.20;0.20;;;;;;;;;;5015875;28;20354;-74
2021/05/10 05:41:02;;;;;;;0.40;0.30;;;;;;;;;;5015521;28;20705;-75
2021/05/10 05:43:27;;;;;;;1.67;0.60;;;;;;;;;;5014463;28;20026;-74
2021/05/10 05:45:52;;;;;;;0.88;0.60;;;;;;;;;;5014716;28;20021;-74
2021/05/10 05:48:17;;;;;;;0.47;0.40;;;;;;;;;;5015906;28;20017;-74
2021/05/10 05:50:43;;;;;;;0.40;0.40;;;;;;;;;;4999775;28;20491;-74
2021/05/10 05:53:09;;;;;;;0.95;0.52;;;;;;;;;;5002980;28;20033;-74
2021/05/10 05:55:34;;;;;;;1.67;0.70;;;;;;;;;;5028946;28;20390;-74
2021/05/10 05:58:02;;;;;;;0.60;0.60;;;;;;;;;;5035767;28;20024;-74
2021/05/10 06:00:27;;;;;;;0.88;0.60;;;;;;;;;;5035037;28;20025;-73
2021/05/10 06:02:53;;;;;;;0.82;0.52;;;;;;;;;;5020088;28;20354;-73
2021/05/10 06:05:18;;;;;;;0.57;0.57;;;;;;;;;;5015305;28;20033;-74
2021/05/10 06:07:44;;;;;;;1.73;0.55;;;;;;;;;;5015027;28;20272;-74
2021/05/10 06:10:11;;;;;;;0.73;0.60;;;;;;;;;;5015094;28;20080;-74
2021/05/10 06:12:37;;;;;;;0.98;0.60;;;;;;;;;;5014633;28;20053;-74
2021/05/10 06:15:03;;;;;;;0.55;0.40;;;;;;;;;;5013869;28;20025;-73
2021/05/10 06:17:28;;;;;;;0.40;0.40;;;;;;;;;;5014174;28;20025;-74
2021/05/10 06:19:53;;;;;;;1.05;0.38;;;;;;;;;;5014769;28;20446;-74
2021/05/10 06:22:19;;;;;;;0.52;0.40;;;;;;;;;;5015621;28;20022;-74
2021/05/10 06:24:46;;;;;;;0.52;0.30;;;;;;;;;;5014144;28;20060;-74
2021/05/10 06:27:12;;;;;;;0.32;0.32;;;;;;;;;;5015334;28;20026;-74
2021/05/10 06:29:39;;;;;;;0.52;0.40;;;;;;;;;;5005514;28;20366;-74
2021/05/10 06:32:05;;;;;;;0.77;0.40;;;;;;;;;;5024128;28;20021;-73
2021/05/10 06:34:30;;;;;;;0.82;0.50;;;;;;;;;;5032589;28;20010;-73
2021/05/10 06:36:57;;;;;;;0.50;0.40;;;;;;;;;;5004372;28;20026;-72
2021/05/10 06:39:23;;;;;;;0.35;0.30;;;;;;;;;;5005624;28;20413;-75
2021/05/10 06:41:48;;;;;;;0.30;0.30;;;;;;;;;;4998514;28;20126;-75
2021/05/10 06:44:14;;;;;;;0.47;0.43;;;;;;;;;;5013083;28;20109;-75
2021/05/10 06:46:39;;;;;;;0.60;0.40;;;;;;;;;;5013135;28;20350;-75
2021/05/10 06:49:04;;;;;;;0.32;0.30;;;;;;;;;;5001687;28;20025;-75
2021/05/10 06:51:30;;;;;;;1.13;0.43;;;;;;;;;;5010815;28;20152;-74
2021/05/10 06:53:57;;;;;;;0.73;0.43;;;;;;;;;;5015447;28;20021;-74
2021/05/10 06:56:23;;;;;;;0.32;0.32;;;;;;;;;;5025275;28;20029;-76
2021/05/10 06:58:48;;;;;;;0.50;0.50;;;;;;;;;;5014851;28;20427;-76
2021/05/10 07:01:16;;;;;;;0.60;0.45;;;;;;;;;;5011166;28;20072;-76
2021/05/10 07:03:44;;;;;;;0.40;0.40;;;;;;;;;;5012371;28;20133;-76
2021/05/10 07:06:11;;;;;;;0.40;0.35;;;;;;;;;;5009015;28;20036;-76
2021/05/10 07:08:36;;;;;;;0.60;0.30;;;;;;;;;;5014328;28;20030;-75
2021/05/10 07:11:02;;;;;;;0.43;0.38;;;;;;;;;;5014538;28;20614;-76
2021/05/10 07:13:27;;;;;;;0.80;0.45;;;;;;;;;;5013925;28;20053;-75
2021/05/10 07:15:52;;;;;;;0.60;0.47;;;;;;;;;;5014027;28;20359;-77
2021/05/10 07:18:18;;;;;;;0.80;0.40;;;;;;;;;;5013837;28;20088;-77
2021/05/10 07:20:44;;;;;;;0.65;0.30;;;;;;;;;;5013334;28;20439;-77
2021/05/10 07:23:10;;;;;;;0.22;0.22;;;;;;;;;;5014120;28;20056;-75
2021/05/10 07:25:41;;;;;;;0.47;0.30;;;;;;;;;;5014081;28;20070;-76
2021/05/10 07:28:06;;;;;;;0.35;0.20;;;;;;;;;;5013537;28;20026;-77
2021/05/10 07:30:31;;;;;;;0.35;0.30;;;;;;;;;;5014128;28;20423;-76
2021/05/10 07:32:57;;;;;;;0.30;0.30;;;;;;;;;;5013568;28;20072;-77
2021/05/10 07:35:22;;;;;;;0.40;0.30;;;;;;;;;;5014141;28;20052;-77
2021/05/10 07:37:47;;;;;;;0.40;0.38;;;;;;;;;;5013673;28;20308;-77
2021/05/10 07:40:13;;;;;;;1.00;0.30;;;;;;;;;;5010159;28;20469;-77
2021/05/10 07:42:38;;;;;;;0.50;0.40;;;;;;;;;;5018047;28;20025;-76
2021/05/10 07:45:04;;;;;;;0.40;0.30;;;;;;;;;;5013407;28;20026;-77
2021/05/10 07:47:32;;;;;;;0.68;0.32;;;;;;;;;;5012291;28;20041;-77
2021/05/10 07:49:59;;;;;;;0.38;0.38;;;;;;;;;;5013058;28;20026;-78
2021/05/10 07:52:25;;;;;;;0.25;0.20;;;;;;;;;;5013007;28;20037;-77
2021/05/10 07:54:50;;;;;;;0.20;0.20;;;;;;;;;;5012482;28;20018;-79
2021/05/10 07:57:16;;;;;;;0.30;0.30;;;;;;;;;;5012718;28;20026;-77
2021/05/10 07:59:41;;;;;;;0.50;0.30;;;;;;;;;;5012828;28;20096;-76
2021/05/10 08:02:06;;;;;;;0.23;0.23;;;;;;;;;;5001798;28;20096;-76
2021/05/10 08:04:31;;;;;;;0.73;0.38;;;;;;;;;;5009628;28;20281;-78
2021/05/10 08:06:57;;;;;;;0.30;0.28;;;;;;;;;;5013322;28;20022;-76
2021/05/10 08:09:23;;;;;;;0.75;0.43;;;;;;;;;;5012783;28;20350;-76
2021/05/10 08:11:48;;;;;;;0.28;0.28;;;;;;;;;;5012164;28;20089;-76
2021/05/10 08:14:14;;;;;;;0.40;0.40;;;;;;;;;;5012379;28;20044;-77
2021/05/10 08:16:41;;;;;;;1.98;0.47;;;;;;;;;;5012717;28;20022;-77
2021/05/10 08:19:07;;;;;;;0.73;0.40;;;;;;;;;;5011863;28;20030;-77
2021/05/10 08:21:32;;;;;;;0.73;0.35;;;;;;;;;;5011717;28;20521;-77
2021/05/10 08:24:00;;;;;;;0.47;0.30;;;;;;;;;;5011801;28;20474;-77
2021/05/10 08:26:31;;;;;;;0.20;0.20;;;;;;;;;;5012899;28;20034;-78
2021/05/10 08:28:56;;;;;;;1.55;0.20;;;;;;;;;;5010048;28;20025;-78
2021/05/10 08:31:21;;;;;;;0.40;0.30;;;;;;;;;;5013175;28;20018;-78
2021/05/10 08:34:03;;;;;;;0.20;0.20;;;;;;;;;;5012687;28;20025;-78
2021/05/10 08:36:46;;;;;;;0.20;0.20;;;;;;;;;;5011057;28;20653;-79
2021/05/10 08:39:14;;;;;;;1.65;0.38;;;;;;;;;;5011909;28;20045;-80
2021/05/10 08:41:41;;;;;;;0.57;0.22;;;;;;;;;;5016530;28;20037;-76
2021/05/10 08:44:23;;;;;;;;;;;;;;;;;;;;;
2021/05/10 08:46:49;;;;;;;0.20;0.20;;;;;;;;;;5013232;28;20034;-77
2021/05/10 08:49:19;;;;;;;0.32;0.30;;;;;;;;;;5016627;28;20036;-79
2021/05/10 08:51:44;;;;;;;0.88;0.47;;;;;;;;;;5017082;28;20620;-80
2021/05/10 08:54:26;;;;;;;1.17;0.38;;;;;;;;;;5017122;28;20029;-82
2021/05/10 08:56:52;;;;;;;2.55;0.30;;;;;;;;;;5013033;28;20447;-81
2021/05/10 08:59:19;;;;;;;0.77;0.40;;;;;;;;;;5016579;28;20022;-82
2021/05/10 09:01:50;;;;;;;0.30;0.30;;;;;;;;;;5017226;28;20108;-82
2021/05/10 09:04:15;;;;;;;0.30;0.30;;;;;;;;;;5016524;28;20021;-80
2021/05/10 09:06:41;;;;;;;0.28;0.28;;;;;;;;;;5014154;28;20040;-81
2021/05/10 09:09:09;;;;;;;0.52;0.35;;;;;;;;;;5015580;28;20033;-80
2021/05/10 09:11:51;;;;;;;0.47;0.38;;;;;;;;;;5014361;28;20100;-80
2021/05/10 09:14:28;;;;;;;0.40;0.30;;;;;;;;;;5015618;28;20076;-80
2021/05/10 09:16:54;;;;;;;0.43;0.20;;;;;;;;;;5015837;28;20112;-80
2021/05/10 09:19:19;;;;;;;0.10;0.10;;;;;;;;;;5016497;28;20050;-80
2021/05/10 09:21:54;;;;;;;0.23;0.20;;;;;;;;;;5014270;28;20033;-80
2021/05/10 09:24:24;;;;;;;0.20;0.20;;;;;;;;;;5015571;28;20257;-81
2021/05/10 09:26:50;;;;;;;0.30;0.30;;;;;;;;;;5015147;28;20026;-78
2021/05/10 09:29:28;;;;;;;0.20;0.20;;;;;;;;;;5016217;28;20033;-78
2021/05/10 09:31:53;;;;;;;0.20;0.20;;;;;;;;;;5000942;28;20025;-78
2021/05/10 09:34:19;;;;;;;0.20;0.10;;;;;;;;;;5016092;28;20018;-78
2021/05/10 09:36:47;;;;;;;1.13;0.20;;;;;;;;;;5016268;28;20021;-78
2021/05/10 09:39:28;;;;;;;0.15;0.15;;;;;;;;;;5015260;28;20042;-77
2021/05/10 09:42:00;;;;;;;0.20;0.20;;;;;;;;;;5000028;28;20022;-78
2021/05/10 09:44:45;;;;;;;0.28;0.20;;;;;;;;;;5014453;28;20030;-77
2021/05/10 09:47:10;;;;;;;0.10;0.10;;;;;;;;;;5012383;28;20030;-77
2021/05/10 09:49:45;;;;;;;0.20;0.20;;;;;;;;;;5014187;28;20358;-77
2021/05/10 09:52:23;;;;;;;0.40;0.20;;;;;;;;;;5014796;28;20401;-78
2021/05/10 09:54:53;;;;;;;1.17;0.32;;;;;;;;;;5013861;28;20509;-78
2021/05/10 09:57:20;;;;;;;0.40;0.22;;;;;;;;;;5013376;28;20443;-79
2021/05/10 10:00:05;;;;;;;0.95;0.20;;;;;;;;;;5014575;28;20103;-79
2021/05/10 10:02:33;;;;;;;0.22;0.22;;;;;;;;;;5008552;28;20026;-77
2021/05/10 10:04:59;;;;;;;0.30;0.30;;;;;;;;;;5011812;28;20037;-79
2021/05/10 10:07:25;;;;;;;0.30;0.30;;;;;;;;;;5015033;28;20319;-79
2021/05/10 10:09:51;;;;;;;0.30;0.20;;;;;;;;;;5014167;28;20120;-79
2021/05/10 10:12:16;;;;;;;0.47;0.22;;;;;;;;;;5013903;28;20085;-79
2021/05/10 10:14:42;;;;;;;2.08;0.30;;;;;;;;;;5014295;28;20458;-79
2021/05/10 10:17:10;;;;;;;0.20;0.20;;;;;;;;;;5014954;28;20458;-79
2021/05/10 10:19:36;;;;;;;0.40;0.22;;;;;;;;;;5013172;28;20296;-77
2021/05/10 10:22:03;;;;;;;0.50;0.32;;;;;;;;;;5012890;28;20540;-77
2021/05/10 10:24:31;;;;;;;1.48;0.30;;;;;;;;;;5015154;28;20022;-79
2021/05/10 10:26:59;;;;;;;0.20;0.20;;;;;;;;;;5012741;28;20030;-79
2021/05/10 10:29:29;;;;;;;0.45;0.25;;;;;;;;;;5015183;28;20032;-78
2021/05/10 10:31:55;;;;;;;0.10;0.10;;;;;;;;;;5014135;28;20093;-78
2021/05/10 10:34:26;;;;;;;0.25;0.20;;;;;;;;;;5014044;28;20017;-79
2021/05/10 10:36:55;;;;;;;0.20;0.20;;;;;;;;;;5017014;28;20021;-78
2021/05/10 10:39:22;;;;;;;0.20;0.20;;;;;;;;;;5014658;28;20029;-80
2021/05/10 10:41:58;;;;;;;0.10;0.10;;;;;;;;;;5005107;28;20351;-82
2021/05/10 10:44:36;;;;;;;0.20;0.20;;;;;;;;;;5021529;28;20030;-81
2021/05/10 10:47:02;;;;;;;0.17;0.17;;;;;;;;;;5019212;28;20268;-80
2021/05/10 10:49:29;;;;;;;0.10;0.10;;;;;;;;;;5017618;28;20391;-81
2021/05/10 10:51:55;;;;;;;0.32;0.20;;;;;;;;;;5014010;28;20393;-81
2021/05/10 10:54:21;;;;;;;0.10;0.10;;;;;;;;;;5013828;28;20022;-82
2021/05/10 10:56:48;;;;;;;0.10;0.10;;;;;;;;;;5009880;28;20041;-81
2021/05/10 10:59:22;;;;;;;0.20;0.10;;;;;;;;;;5014308;28;20080;-78
2021/05/10 11:01:47;;;;;;;0.10;0.10;;;;;;;;;;5012152;28;20075;-82
2021/05/10 11:04:28;;;;;;;0.20;0.20;;;;;;;;;;5007783;28;20379;-79
2021/05/10 11:06:53;;;;;;;0.30;0.30;;;;;;;;;;5032012;28;20117;-79
2021/05/10 11:09:40;;;;;;;0.20;0.20;;;;;;;;;;5012339;28;20105;-78
2021/05/10 11:12:05;;;;;;;;;;;;;;;;;;5014328;28;20025;-81
2021/05/10 11:14:41;;;;;;;0.20;0.20;;;;;;;;;;5014026;28;19920;-81
2021/05/10 11:17:06;;;;;;;;;;;;;;;;;;5015365;28;20101;-80
2021/05/10 11:19:32;;;;;;;1.30;0.47;;;;;;;;;;5013895;28;19952;-80
2021/05/10 11:22:01;;;;;;;0.30;0.30;;;;;;;;;;5014214;28;20446;-79
2021/05/10 11:24:30;;;;;;;0.20;0.20;;;;;;;;;;5013839;28;20065;-79
2021/05/10 11:26:57;;;;;;;0.10;0.10;;;;;;;;;;5013191;28;20112;-80
2021/05/10 11:29:26;;;;;;;0.52;0.10;;;;;;;;;;4994843;28;20014;-79
2021/05/10 11:31:57;;;;;;;0.10;0.10;;;;;;;;;;4994927;28;20463;-78
2021/05/10 11:34:30;;;;;;;0.45;0.10;;;;;;;;;;4994935;28;20029;-79
2021/05/10 11:36:56;;;;;;;0.10;0.10;;;;;;;;;;4999482;28;20054;-79
2021/05/10 11:39:24;;;;;;;0.65;0.13;;;;;;;;;;5013320;28;20034;-79
2021/05/10 11:41:53;;;;;;;0.10;0.10;;;;;;;;;;5013987;28;20026;-80
2021/05/10 11:44:25;;;;;;;0.10;0.10;;;;;;;;;;5013241;28;20431;-78
2021/05/10 11:46:52;;;;;;;0.20;0.20;;;;;;;;;;5011858;28;20026;-81
2021/05/10 11:49:26;;;;;;;0.20;0.20;;;;;;;;;;4994739;28;20474;-80
2021/05/10 11:51:56;;;;;;;0.10;0.10;;;;;;;;;;5007737;28;20018;-79
2021/05/10 11:54:22;;;;;;;0.10;0.10;;;;;;;;;;5016325;28;20017;-82
2021/05/10 11:56:49;;;;;;;0.10;0.10;;;;;;;;;;5016049;28;20022;-82
2021/05/10 11:59:37;;;;;;;0.20;0.20;;;;;;;;;;5018765;28;20022;-80
2021/05/10 12:02:08;;;;;;;0.20;0.20;;;;;;;;;;5015651;28;20029;-82
2021/05/10 12:04:33;;;;;;;0.15;0.15;;;;;;;;;;5013257;28;20079;-78
2021/05/10 12:06:59;;;;;;;0.20;0.20;;;;;;;;;;5013306;28;20109;-80
2021/05/10 12:09:35;;;;;;;0.25;0.20;;;;;;;;;;5013704;28;20353;-77
2021/05/10 12:12:00;;;;;;;0.32;0.30;;;;;;;;;;5009509;28;20030;-81
2021/05/10 12:14:26;;;;;;;1.17;0.20;;;;;;;;;;5012857;28;20017;-82
2021/05/10 12:17:08;;;;;;;0.20;0.20;;;;;;;;;;4996294;28;20354;-84
2021/05/10 12:19:52;;;;;;;0.20;0.20;;;;;;;;;;5012367;28;20014;-79
2021/05/10 12:22:21;;;;;;;0.20;0.20;;;;;;;;;;5013574;28;20022;-83
2021/05/10 12:25:05;;;;;;;0.30;0.30;;;;;;;;;;5012708;28;20029;-81
2021/05/10 12:27:36;;;;;;;0.30;0.30;;;;;;;;;;5017537;28;20458;-82
2021/05/10 12:30:03;;;;;;;0.20;0.20;;;;;;;;;;5013578;28;20509;-83
2021/05/10 12:32:28;;;;;;;0.20;0.20;;;;;;;;;;5013263;28;20037;-79
2021/05/10 12:34:53;;;;;;;0.30;0.23;;;;;;;;;;5016656;28;20014;-81
2021/05/10 12:37:19;;;;;;;0.43;0.22;;;;;;;;;;5013571;28;20740;-82
2021/05/10 12:39:46;;;;;;;0.13;0.13;;;;;;;;;;5013406;28;20017;-81
2021/05/10 12:42:20;;;;;;;0.30;0.20;;;;;;;;;;5007115;28;20442;-78
2021/05/10 12:44:56;;;;;;;0.20;0.10;;;;;;;;;;5012971;28;20084;-82
2021/05/10 12:47:40;;;;;;;0.10;0.10;;;;;;;;;;5015098;28;20017;-81
2021/05/10 12:50:06;;;;;;;0.20;0.20;;;;;;;;;;5003538;28;20085;-80
2021/05/10 12:52:44;;;;;;;0.10;0.10;;;;;;;;;;5016153;28;20022;-80
2021/05/10 12:55:15;;;;;;;0.73;0.20;;;;;;;;;;5011740;28;20116;-79
2021/05/10 12:57:41;;;;;;;0.20;0.20;;;;;;;;;;5013218;28;20073;-81
2021/05/10 13:00:06;;;;;;;0.17;0.15;;;;;;;;;;5016121;28;20033;-80
2021/05/10 13:02:37;;;;;;;0.20;0.20;;;;;;;;;;5016432;28;20060;-80
2021/05/10 13:05:02;;;;;;;0.20;0.20;;;;;;;;;;5012357;28;20025;-82
2021/05/10 13:07:45;;;;;;;0.20;0.20;;;;;;;;;;5012524;28;20021;-79
2021/05/10 13:10:10;;;;;;;0.28;0.20;;;;;;;;;;5001114;28;20108;-81
2021/05/10 13:12:49;;;;;;;0.35;0.20;;;;;;;;;;5012850;28;20096;-81
2021/05/10 13:15:30;;;;;;;0.45;0.30;;;;;;;;;;5014780;28;20050;-80
2021/05/10 13:18:01;;;;;;;0.20;0.10;;;;;;;;;;5012159;28;20394;-79
2021/05/10 13:20:52;;;;;;;0.10;0.10;;;;;;;;;;5010543;28;20415;-79
2021/05/10 13:34:19;;;;;;;0.38;0.20;;;;;;;;;;5016159;28;20334;-81
2021/05/10 13:36:47;;;;;;;0.20;0.20;;;;;;;;;;5013760;28;20044;-80
2021/05/10 13:39:19;;;;;;;0.10;0.10;;;;;;;;;;5016225;28;20045;-80
2021/05/10 13:41:51;;;;;;;0.20;0.20;;;;;;;;;;5015999;28;20450;-80
2021/05/10 13:44:16;;;;;;;0.10;0.10;;;;;;;;;;5019704;28;20405;-78
2021/05/10 13:46:45;;;;;;;0.15;0.15;;;;;;;;;;5015917;28;20025;-79
2021/05/10 13:49:11;;;;;;;0.10;0.10;;;;;;;;;;5016704;28;20037;-78
2021/05/10 13:51:37;;;;;;;0.20;0.20;;;;;;;;;;5022472;28;20022;-80
2021/05/10 13:54:02;;;;;;;0.08;0.08;;;;;;;;;;5015299;28;20109;-79
2021/05/10 13:56:28;;;;;;;0.10;0.10;;;;;;;;;;5015356;28;20374;-80
2021/05/10 13:58:54;;;;;;;0.10;0.10;;;;;;;;;;5014850;28;20022;-81
2021/05/10 14:01:19;;;;;;;0.10;0.10;;;;;;;;;;5023684;28;20456;-80
2021/05/10 14:03:45;;;;;;;0.20;0.10;;;;;;;;;;5020521;28;20168;-79
2021/05/10 14:06:10;;;;;;;0.22;0.20;;;;;;;;;;5015174;28;20104;-79
2021/05/10 14:08:35;;;;;;;0.10;0.10;;;;;;;;;;5014579;28;20335;-78
2021/05/10 14:11:04;;;;;;;0.20;0.20;;;;;;;;;;5015134;28;20036;-79
2021/05/10 14:13:31;;;;;;;0.10;0.10;;;;;;;;;;5014238;28;20029;-80
2021/05/10 14:15:56;;;;;;;0.30;0.10;;;;;;;;;;5014755;28;20112;-80
2021/05/10 14:18:29;;;;;;;0.13;0.10;;;;;;;;;;5014595;28;20077;-79
2021/05/10 14:23:40;;;;;;;0.10;0.10;;;;;;;;;;5012690;28;20358;-79
2021/05/10 14:26:08;;;;;;;0.38;0.15;;;;;;;;;;5014609;28;20029;-78
2021/05/10 14:28:38;;;;;;;0.28;0.15;;;;;;;;;;5014647;28;20045;-80
2021/05/10 14:31:04;;;;;;;0.10;0.10;;;;;;;;;;5015109;28;20022;-78
2021/05/10 14:33:30;;;;;;;0.20;0.20;;;;;;;;;;5017709;28;20093;-79
2021/05/10 14:35:56;;;;;;;0.10;0.10;;;;;;;;;;5016058;28;20034;-78
2021/05/10 14:38:24;;;;;;;0.10;0.10;;;;;;;;;;5008434;28;20117;-79
2021/05/10 14:40:50;;;;;;;0.30;0.30;;;;;;;;;;5013209;28;20018;-78
2021/05/10 14:43:15;;;;;;;0.10;0.10;;;;;;;;;;5013652;28;20030;-78
2021/05/10 14:45:40;;;;;;;0.25;0.20;;;;;;;;;;5010832;28;20014;-78
2021/05/10 14:48:06;;;;;;;0.13;0.10;;;;;;;;;;5014950;28;20022;-78
2021/05/10 14:50:31;;;;;;;0.10;0.10;;;;;;;;;;5014372;28;20026;-79
2021/05/10 14:52:56;;;;;;;0.20;0.20;;;;;;;;;;5013130;28;20026;-79
2021/05/10 14:55:22;;;;;;;0.10;0.10;;;;;;;;;;5014029;28;20423;-78
2021/05/10 14:57:48;;;;;;;0.10;0.10;;;;;;;;;;5014483;28;20463;-78
2021/05/10 15:00:13;;;;;;;0.10;0.10;;;;;;;;;;5028154;28;20401;-78
2021/05/10 15:02:41;;;;;;;0.10;0.10;;;;;;;;;;5000738;28;20350;-79
2021/05/10 15:05:06;;;;;;;0.17;0.10;;;;;;;;;;5026332;28;20029;-78
2021/05/10 15:07:31;;;;;;;0.20;0.10;;;;;;;;;;5012861;28;20030;-78
2021/05/10 15:09:57;;;;;;;0.15;0.10;;;;;;;;;;5003516;28;20026;-79